createdAt,value
2022-12-11T00:00:21.836Z,97009.06
2022-12-11T00:02:48.625Z,97002.09
2022-12-11T00:05:15.497Z,97006.94
2022-12-11T00:07:42.357Z,96998.63
2022-12-11T00:10:09.615Z,97012.81
2022-12-11T00:12:36.382Z,97012.50
2022-12-11T00:15:03.403Z,97007.94
2022-12-11T00:17:30.183Z,97014.13
2022-12-11T00:19:56.959Z,97016.50
2022-12-11T00:22:23.751Z,97019.75
2022-12-11T00:24:51.670Z,97021.94
2022-12-11T00:27:18.476Z,97027.47
2022-12-11T00:29:45.310Z,97022.38
2022-12-11T00:32:12.154Z,97023.19
2022-12-11T00:34:39.040Z,97012.69
2022-12-11T00:37:05.848Z,97015.69
2022-12-11T00:39:32.768Z,97007.31
2022-12-11T00:41:59.605Z,97012.69
2022-12-11T00:44:26.431Z,97020.25
2022-12-11T00:46:53.176Z,97017.31
2022-12-11T00:49:19.963Z,97029.59
2022-12-11T00:51:46.772Z,97032.28
2022-12-11T00:54:13.638Z,97037.91
2022-12-11T00:56:40.519Z,97039.53
2022-12-11T00:59:07.342Z,97044.00
2022-12-11T01:01:34.404Z,97034.06
2022-12-11T01:04:01.298Z,97044.09
2022-12-11T01:06:28.698Z,97045.97
2022-12-11T01:09:14.666Z,97052.84
2022-12-11T01:11:43.050Z,97057.16
2022-12-11T01:14:11.886Z,97062.78
2022-12-11T01:16:38.926Z,97066.50
2022-12-11T01:19:05.874Z,97079.38
2022-12-11T01:21:32.701Z,97079.84
2022-12-11T01:23:59.458Z,97070.25
2022-12-11T01:26:26.241Z,97078.06
2022-12-11T01:28:53.140Z,97075.88
2022-12-11T01:31:20.786Z,97082.84
2022-12-11T01:33:48.038Z,97081.56
2022-12-11T01:36:18.243Z,97093.78
2022-12-11T01:38:46.732Z,97112.78
2022-12-11T01:41:14.354Z,97109.88
2022-12-11T01:44:05.185Z,97106.94
2022-12-11T01:46:34.357Z,97109.31
2022-12-11T01:49:04.836Z,97120.28
2022-12-11T01:51:36.740Z,97108.72
2022-12-11T01:54:09.142Z,97118.97
2022-12-11T01:56:38.049Z,97121.09
2022-12-11T01:59:08.174Z,97123.53
2022-12-11T02:01:43.155Z,97134.81
2022-12-11T02:04:11.256Z,97130.19
2022-12-11T02:06:47.039Z,97131.50
2022-12-11T02:09:17.156Z,97134.50
2022-12-11T02:11:59.233Z,97118.91
2022-12-11T02:14:38.122Z,97095.56
2022-12-11T02:17:06.804Z,97104.91
2022-12-11T02:19:48.865Z,97104.91
2022-12-11T02:22:37.684Z,97104.69
2022-12-11T02:25:30.692Z,97108.31
2022-12-11T02:28:31.788Z,97084.28
2022-12-11T02:31:07.435Z,97098.63
2022-12-11T02:33:42.402Z,97102.25
2022-12-11T02:36:10.675Z,97100.44
2022-12-11T02:38:41.816Z,97092.22
2022-12-11T02:41:11.998Z,97100.25
2022-12-11T02:43:40.479Z,97109.47
2022-12-11T02:46:08.806Z,97089.53
2022-12-11T02:48:37.213Z,97107.03
2022-12-11T02:51:06.926Z,97096.31
2022-12-11T02:53:37.465Z,97100.69
2022-12-11T02:56:11.183Z,97095.25
2022-12-11T02:58:43.530Z,97078.91
2022-12-11T03:01:10.707Z,97087.91
2022-12-11T03:03:37.771Z,97069.13
2022-12-11T03:06:04.840Z,97072.06
2022-12-11T03:08:32.215Z,97077.09
2022-12-11T03:10:59.113Z,97075.56
2022-12-11T03:13:25.912Z,97079.06
2022-12-11T03:16:12.196Z,97080.09
2022-12-11T03:18:51.147Z,97078.81
2022-12-11T03:21:35.119Z,97079.88
2022-12-11T03:24:04.629Z,97068.25
2022-12-11T03:26:37.277Z,97064.81
2022-12-11T03:29:32.445Z,97058.09
2022-12-11T03:32:03.272Z,97063.31
2022-12-11T03:34:41.679Z,97065.00
2022-12-11T03:37:10.313Z,97064.25
2022-12-11T03:39:42.434Z,97077.34
2022-12-11T03:42:13.944Z,97079.78
2022-12-11T03:44:43.729Z,97072.25
2022-12-11T03:47:11.424Z,97080.09
2022-12-11T03:49:41.743Z,97079.88
2022-12-11T03:52:11.471Z,97089.94
2022-12-11T03:54:41.290Z,97083.53
2022-12-11T03:57:10.640Z,97062.41
2022-12-11T03:59:37.451Z,97059.72
2022-12-11T04:02:10.975Z,97055.66
2022-12-11T04:04:39.296Z,97053.78
2022-12-11T04:07:06.807Z,97082.16
2022-12-11T04:09:34.304Z,97056.72
2022-12-11T04:12:01.084Z,97067.19
2022-12-11T04:14:46.472Z,97049.16
2022-12-11T04:17:33.206Z,97040.06
2022-12-11T04:20:18.813Z,97055.34
2022-12-11T04:23:03.956Z,97058.34
2022-12-11T04:25:30.773Z,97060.63
2022-12-11T04:27:57.553Z,97057.78
2022-12-11T04:30:30.781Z,97068.75
2022-12-11T04:33:00.735Z,97064.03
2022-12-11T04:35:27.563Z,97066.63
2022-12-11T04:37:54.403Z,97067.03
2022-12-11T04:40:21.381Z,97061.69
2022-12-11T04:42:48.180Z,97068.19
2022-12-11T04:45:15.432Z,97074.84
2022-12-11T04:47:42.390Z,97085.09
2022-12-11T04:50:14.384Z,97101.91
2022-12-11T04:52:41.896Z,97090.13
2022-12-11T04:55:09.497Z,97099.13
2022-12-11T04:57:36.618Z,97095.25
2022-12-11T05:00:06.629Z,97100.59
2022-12-11T05:02:38.982Z,97097.09
2022-12-11T05:05:07.234Z,97108.16
2022-12-11T05:07:34.144Z,97114.00
2022-12-11T05:10:00.975Z,97115.97
2022-12-11T05:12:28.075Z,97119.44
2022-12-11T05:14:55.399Z,97120.03
2022-12-11T05:17:22.768Z,97130.75
2022-12-11T05:19:52.278Z,97121.06
2022-12-11T05:22:19.613Z,97135.06
2022-12-11T05:24:46.506Z,97138.56
2022-12-11T05:27:13.448Z,97143.91
2022-12-11T05:29:40.306Z,97142.03
2022-12-11T05:32:07.126Z,97153.59
2022-12-11T05:34:33.885Z,97146.03
2022-12-11T05:37:01.578Z,97152.53
2022-12-11T05:39:28.404Z,97150.81
2022-12-11T05:41:55.182Z,97152.69
2022-12-11T05:44:22.054Z,97146.94
2022-12-11T05:46:49.810Z,97149.69
2022-12-11T05:49:19.867Z,97151.63
2022-12-11T05:51:47.670Z,97152.13
2022-12-11T05:54:14.738Z,97159.59
2022-12-11T05:56:41.625Z,97157.72
2022-12-11T05:59:09.175Z,97165.78
2022-12-11T06:01:43.325Z,97159.34
2022-12-11T06:04:12.278Z,97173.81
2022-12-11T06:06:40.524Z,97171.94
2022-12-11T06:09:07.780Z,97169.19
2022-12-11T06:11:35.012Z,97171.72
2022-12-11T06:14:03.352Z,97186.09
2022-12-11T06:16:30.962Z,97179.09
2022-12-11T06:18:58.785Z,97182.69
2022-12-11T06:21:31.049Z,97186.66
2022-12-11T06:24:00.436Z,97177.81
2022-12-11T06:26:27.800Z,97180.47
2022-12-11T06:28:54.846Z,97180.47
2022-12-11T06:31:21.817Z,97182.84
2022-12-11T06:33:48.715Z,97182.84
2022-12-11T06:36:23.116Z,97190.06
2022-12-11T06:38:50.785Z,97207.22
2022-12-11T06:41:17.719Z,97192.50
2022-12-11T06:43:44.716Z,97199.75
2022-12-11T06:46:19.631Z,97201.72
2022-12-11T06:48:47.717Z,97195.09
2022-12-11T06:51:18.309Z,97211.03
2022-12-11T06:53:45.744Z,97197.88
2022-12-11T06:56:14.693Z,97197.53
2022-12-11T06:58:43.182Z,97198.81
2022-12-11T07:01:22.121Z,97194.38
2022-12-11T07:03:49.321Z,97204.53
2022-12-11T07:06:16.626Z,97196.25
2022-12-11T07:08:43.753Z,97183.53
2022-12-11T07:11:14.737Z,97193.56
2022-12-11T07:13:44.501Z,97201.13
2022-12-11T07:16:13.056Z,97199.50
2022-12-11T07:18:41.700Z,97198.78
2022-12-11T07:21:11.398Z,97196.56
2022-12-11T07:23:38.256Z,97198.69
2022-12-11T07:26:07.016Z,97208.12
2022-12-11T07:28:34.541Z,97203.22
2022-12-11T07:31:09.949Z,97207.31
2022-12-11T07:33:36.840Z,97209.91
2022-12-11T07:36:06.525Z,97208.41
2022-12-11T07:38:33.289Z,97211.66
2022-12-11T07:41:08.408Z,97209.41
2022-12-11T07:43:36.085Z,97199.25
2022-12-11T07:46:08.211Z,97212.19
2022-12-11T07:48:36.589Z,97200.31
2022-12-11T07:51:22.993Z,97210.47
2022-12-11T07:53:50.456Z,97224.06
2022-12-11T07:56:18.963Z,97225.91
2022-12-11T07:58:46.810Z,97211.69
2022-12-11T08:01:18.849Z,97226.72
2022-12-11T08:03:46.017Z,97223.66
2022-12-11T08:06:13.395Z,97226.13
2022-12-11T08:08:41.795Z,97227.53
2022-12-11T08:11:13.221Z,97232.88
2022-12-11T08:13:41.023Z,97242.63
2022-12-11T08:16:11.558Z,97234.50
2022-12-11T08:18:38.896Z,97251.16
2022-12-11T08:21:12.039Z,97259.78
2022-12-11T08:23:38.855Z,97268.97
2022-12-11T08:26:08.463Z,97255.63
2022-12-11T08:28:35.316Z,97251.31
2022-12-11T08:31:05.511Z,97260.75
2022-12-11T08:33:32.344Z,97252.72
2022-12-11T08:36:02.059Z,97246.53
2022-12-11T08:38:28.861Z,97241.16
2022-12-11T08:40:55.702Z,97249.31
2022-12-11T08:43:22.546Z,97253.41
2022-12-11T08:45:49.470Z,97261.44
2022-12-11T08:48:16.424Z,97259.91
2022-12-11T08:50:43.384Z,97260.16
2022-12-11T08:53:10.160Z,97267.94
2022-12-11T08:55:36.931Z,97256.97
2022-12-11T08:58:03.846Z,97263.22
2022-12-11T09:00:30.578Z,97270.56
2022-12-11T09:02:57.472Z,97259.81
2022-12-11T09:05:24.250Z,97274.88
2022-12-11T09:07:51.071Z,97281.84
2022-12-11T09:10:18.521Z,97276.50
2022-12-11T09:12:45.357Z,97284.53
2022-12-11T09:15:12.480Z,97284.53
2022-12-11T09:17:39.548Z,97301.69
2022-12-11T09:20:06.971Z,97297.97
2022-12-11T09:22:34.235Z,97298.78
2022-12-11T09:25:01.077Z,97301.47
2022-12-11T09:27:27.912Z,97302.53
2022-12-11T09:29:54.794Z,97299.84
2022-12-11T09:32:21.549Z,97298.44
2022-12-11T09:34:50.995Z,97302.19
2022-12-11T09:37:17.898Z,97297.63
2022-12-11T09:39:44.689Z,97298.44
2022-12-11T09:42:20.662Z,97283.16
2022-12-11T09:44:53.066Z,97281.53
2022-12-11T09:47:25.798Z,97290.41
2022-12-11T09:50:12.954Z,97279.66
2022-12-11T09:52:57.853Z,97299.03
2022-12-11T09:55:29.707Z,97288.53
2022-12-11T09:58:14.528Z,97283.72
2022-12-11T10:00:49.351Z,97290.16
2022-12-11T10:03:37.988Z,97290.97
2022-12-11T10:06:12.794Z,97290.16
2022-12-11T10:09:11.686Z,97287.47
2022-12-11T10:12:06.619Z,97287.22
2022-12-11T10:15:20.443Z,97289.91
2022-12-11T10:17:47.569Z,97294.22
2022-12-11T10:20:25.184Z,97297.72
2022-12-11T10:22:54.442Z,97301.81
2022-12-11T10:25:31.294Z,97299.94
2022-12-11T10:27:58.399Z,97313.13
2022-12-11T10:30:34.311Z,97315.56
2022-12-11T10:33:27.000Z,97315.31
2022-12-11T10:35:56.836Z,97314.50
2022-12-11T10:38:32.621Z,97310.53
2022-12-11T10:41:05.921Z,97304.34
2022-12-11T10:43:38.002Z,97315.88
2022-12-11T10:46:07.067Z,97300.34
2022-12-11T10:48:34.000Z,97313.78
2022-12-11T10:51:07.218Z,97307.59
2022-12-11T10:53:34.955Z,97307.09
2022-12-11T10:56:02.427Z,97316.47
2022-12-11T10:58:34.145Z,97305.47
2022-12-11T11:01:21.473Z,97314.91
2022-12-11T11:04:15.528Z,97299.62
2022-12-11T11:06:42.330Z,97306.62
2022-12-11T11:09:30.339Z,97295.06
2022-12-11T11:11:57.179Z,97306.84
2022-12-11T11:14:24.005Z,97313.84
2022-12-11T11:16:55.057Z,97303.69
2022-12-11T11:19:27.062Z,97302.06
2022-12-11T11:21:56.735Z,97296.44
2022-12-11T11:24:43.756Z,97296.44
2022-12-11T11:27:37.152Z,97298.31
2022-12-11T11:30:22.058Z,97308.56
2022-12-11T11:32:52.019Z,97309.63
2022-12-11T11:35:22.458Z,97316.63
2022-12-11T11:38:04.394Z,97317.44
2022-12-11T11:40:38.072Z,97323.38
2022-12-11T11:43:17.753Z,97315.09
2022-12-11T11:45:47.838Z,97315.91
2022-12-11T11:48:40.434Z,97312.16
2022-12-11T11:51:15.884Z,97316.72
2022-12-11T11:53:48.659Z,97321.03
2022-12-11T11:56:47.925Z,97314.62
2022-12-11T11:59:27.552Z,97318.13
2022-12-11T12:01:56.836Z,97322.66
2022-12-11T12:04:27.607Z,97321.62
2022-12-11T12:07:22.542Z,97324.53
2022-12-11T12:10:18.871Z,97318.13
2022-12-11T12:13:44.471Z,97315.19
2022-12-11T12:16:01.986Z,97305.25
2022-12-11T12:18:31.756Z,97303.06
2022-12-11T12:21:26.567Z,97289.06
2022-12-11T12:24:11.533Z,97285.56
2022-12-11T12:26:44.249Z,97296.31
2022-12-11T12:29:22.668Z,97297.34
2022-12-11T12:32:09.642Z,97290.34
2022-12-11T12:35:27.621Z,97290.00
2022-12-11T12:37:57.369Z,97296.44
2022-12-11T12:40:51.222Z,97302.06
2022-12-11T12:43:42.995Z,97301.25
2022-12-11T12:46:44.287Z,97306.03
2022-12-11T12:49:15.765Z,97302.53
2022-12-11T12:51:44.453Z,97297.75
2022-12-11T12:54:16.023Z,97291.81
2022-12-11T12:56:45.238Z,97289.13
2022-12-11T12:59:26.669Z,97306.28
2022-12-11T13:02:02.772Z,97303.03
2022-12-11T13:04:59.460Z,97310.53
2022-12-11T13:07:30.530Z,97309.38
2022-12-11T13:10:00.130Z,97326.88
2022-12-11T13:12:50.881Z,97327.59
2022-12-11T13:15:40.754Z,97322.00
2022-12-11T13:18:32.599Z,97328.19
2022-12-11T13:20:59.682Z,97338.91
2022-12-11T13:23:30.884Z,97349.66
2022-12-11T13:26:01.009Z,97348.03
2022-12-11T13:28:27.815Z,97356.06
2022-12-11T13:31:20.183Z,97355.84
2022-12-11T13:33:53.597Z,97352.09
2022-12-11T13:36:24.538Z,97356.16
2022-12-11T13:39:10.978Z,97364.72
2022-12-11T13:41:38.587Z,97362.03
2022-12-11T13:44:07.331Z,97358.03
2022-12-11T13:46:37.436Z,97366.91
2022-12-11T13:49:07.700Z,97365.53
2022-12-11T13:51:37.135Z,97369.59
2022-12-11T13:54:19.218Z,97378.94
2022-12-11T13:57:15.561Z,97376.00
2022-12-11T13:59:47.983Z,97380.31
2022-12-11T14:02:38.366Z,97373.91
2022-12-11T14:05:09.090Z,97385.13
2022-12-11T14:07:46.798Z,97382.44
2022-12-11T14:10:24.314Z,97395.88
2022-12-11T14:12:54.452Z,97415.16
2022-12-11T14:15:21.915Z,97417.81
2022-12-11T14:17:51.886Z,97414.56
2022-12-11T14:20:25.858Z,97427.38
2022-12-11T14:23:18.628Z,97425.53
2022-12-11T14:26:03.722Z,97430.56
2022-12-11T14:28:37.957Z,97434.28
2022-12-11T14:31:06.526Z,97449.59
2022-12-11T14:33:38.255Z,97446.56
2022-12-11T14:36:06.883Z,97467.81
2022-12-11T14:38:38.484Z,97469.91
2022-12-11T14:41:22.504Z,97468.28
2022-12-11T14:43:54.850Z,97470.37
2022-12-11T14:46:43.591Z,97467.94
2022-12-11T14:49:29.021Z,97474.38
2022-12-11T14:51:58.552Z,97475.41
2022-12-11T14:54:31.815Z,97478.09
2022-12-11T14:56:59.846Z,97480.69
2022-12-11T14:59:32.094Z,97489.19
2022-12-11T15:02:02.154Z,97491.06
2022-12-11T15:04:32.864Z,97494.56
2022-12-11T15:07:00.029Z,97497.94
2022-12-11T15:09:30.476Z,97490.94
2022-12-11T15:12:08.380Z,97492.81
2022-12-11T15:14:35.282Z,97495.72
2022-12-11T15:17:02.212Z,97489.22
2022-12-11T15:19:35.456Z,97501.81
2022-12-11T15:22:09.279Z,97497.41
2022-12-11T15:24:46.584Z,97497.88
2022-12-11T15:27:38.178Z,97501.59
2022-12-11T15:30:26.716Z,97500.66
2022-12-11T15:33:06.318Z,97507.66
2022-12-11T15:35:33.362Z,97505.19
2022-12-11T15:38:00.525Z,97499.50
2022-12-11T15:40:29.255Z,97513.94
2022-12-11T15:42:57.568Z,97509.88
2022-12-11T15:45:28.772Z,97513.59
2022-12-11T15:47:56.459Z,97514.88
2022-12-11T15:50:26.812Z,97508.94
2022-12-11T15:52:56.166Z,97518.03
2022-12-11T15:55:26.449Z,97522.34
2022-12-11T15:57:56.245Z,97511.88
2022-12-11T16:00:24.362Z,97519.56
2022-12-11T16:02:52.264Z,97519.91
2022-12-11T16:05:19.829Z,97522.00
2022-12-11T16:07:46.714Z,97521.63
2022-12-11T16:10:19.445Z,97526.19
2022-12-11T16:12:47.524Z,97523.06
2022-12-11T16:15:22.844Z,97532.59
2022-12-11T16:17:50.867Z,97532.00
2022-12-11T16:20:18.593Z,97535.97
2022-12-11T16:22:45.490Z,97531.06
2022-12-11T16:25:12.520Z,97531.66
2022-12-11T16:27:40.932Z,97534.00
2022-12-11T16:30:10.838Z,97538.31
2022-12-11T16:32:38.358Z,97536.91
2022-12-11T16:35:05.821Z,97533.06
2022-12-11T16:37:32.935Z,97543.19
2022-12-11T16:40:00.573Z,97543.03
2022-12-11T16:42:28.129Z,97542.00
2022-12-11T16:45:03.637Z,97545.94
2022-12-11T16:47:30.807Z,97545.84
2022-12-11T16:50:01.823Z,97546.66
2022-12-11T16:52:29.205Z,97540.69
2022-12-11T16:54:57.910Z,97546.06
2022-12-11T16:57:25.729Z,97545.47
2022-12-11T16:59:52.784Z,97551.53
2022-12-11T17:02:20.832Z,97556.66
2022-12-11T17:04:53.716Z,97558.53
2022-12-11T17:07:21.107Z,97563.75
2022-12-11T17:09:48.137Z,97557.19
2022-12-11T17:12:15.634Z,97563.69
2022-12-11T17:14:42.935Z,97567.19
2022-12-11T17:17:10.263Z,97568.59
2022-12-11T17:19:37.938Z,97562.31
2022-12-11T17:22:05.221Z,97574.88
2022-12-11T17:24:32.680Z,97574.53
2022-12-11T17:27:00.956Z,97565.09
2022-12-11T17:29:28.398Z,97569.50
2022-12-11T17:31:55.623Z,97573.56
2022-12-11T17:34:22.767Z,97580.34
2022-12-11T17:36:50.208Z,97575.44
2022-12-11T17:39:17.505Z,97576.72
2022-12-11T17:41:44.888Z,97582.72
2022-12-11T17:44:12.389Z,97575.88
2022-12-11T17:46:40.053Z,97581.69
2022-12-11T17:49:26.387Z,97580.03
2022-12-11T17:52:04.694Z,97580.62
2022-12-11T17:54:32.650Z,97586.00
2022-12-11T17:57:00.603Z,97588.91
2022-12-11T17:59:27.733Z,97595.66
2022-12-11T18:01:55.171Z,97595.06
2022-12-11T18:04:22.961Z,97597.75
2022-12-11T18:06:51.280Z,97606.22
2022-12-11T18:09:18.473Z,97611.59
2022-12-11T18:11:47.995Z,97611.81
2022-12-11T18:14:17.626Z,97614.13
2022-12-11T18:16:45.345Z,97614.13
2022-12-11T18:19:14.361Z,97615.63
2022-12-11T18:21:44.353Z,97608.63
2022-12-11T18:24:11.831Z,97605.59
2022-12-11T18:26:39.392Z,97614.66
2022-12-11T18:29:07.218Z,97604.31
2022-12-11T18:31:38.975Z,97607.22
2022-12-11T18:34:10.927Z,97608.88
2022-12-11T18:36:38.596Z,97607.00
2022-12-11T18:39:06.119Z,97598.75
2022-12-11T18:41:35.035Z,97600.25
2022-12-11T18:44:08.123Z,97608.72
2022-12-11T18:46:38.051Z,97611.59
2022-12-11T18:49:07.372Z,97597.78
2022-12-11T18:51:35.333Z,97602.09
2022-12-11T18:54:03.111Z,97598.59
2022-12-11T18:56:31.908Z,97602.97
2022-12-11T18:58:59.111Z,97604.84
2022-12-11T19:01:29.080Z,97608.19
2022-12-11T19:04:02.730Z,97600.47
2022-12-11T19:06:33.684Z,97596.22
2022-12-11T19:09:02.635Z,97600.16
2022-12-11T19:11:34.246Z,97601.19
2022-12-11T19:14:02.780Z,97593.41
2022-12-11T19:16:36.620Z,97603.66
2022-12-11T19:19:10.470Z,97602.03
2022-12-11T19:21:39.212Z,97604.09
2022-12-11T19:24:08.903Z,97600.03
2022-12-11T19:26:37.612Z,97597.12
2022-12-11T19:29:05.726Z,97595.41
2022-12-11T19:31:34.330Z,97609.22
2022-12-11T19:34:03.055Z,97602.25
2022-12-11T19:36:31.592Z,97604.78
2022-12-11T19:39:01.837Z,97603.28
2022-12-11T19:41:30.634Z,97604.56
2022-12-11T19:44:00.261Z,97604.78
2022-12-11T19:46:29.107Z,97601.66
2022-12-11T19:48:58.745Z,97602.09
2022-12-11T19:51:30.640Z,97600.25
2022-12-11T19:53:59.683Z,97599.56
2022-12-11T19:56:26.699Z,97594.66
2022-12-11T19:58:53.885Z,97593.41
2022-12-11T20:01:26.324Z,97598.03
2022-12-11T20:03:57.264Z,97592.44
2022-12-11T20:06:26.147Z,97593.84
2022-12-11T20:08:53.862Z,97594.31
2022-12-11T20:11:21.875Z,97593.47
2022-12-11T20:13:50.574Z,97593.47
2022-12-11T20:16:33.367Z,97594.53
2022-12-11T20:19:07.727Z,97593.94
2022-12-11T20:21:34.922Z,97587.75
2022-12-11T20:24:02.825Z,97580.38
2022-12-11T20:26:32.680Z,97580.59
2022-12-11T20:29:00.577Z,97582.00
2022-12-11T20:31:31.742Z,97577.47
2022-12-11T20:33:59.747Z,97577.69
2022-12-11T20:36:28.093Z,97577.47
2022-12-11T20:38:56.337Z,97568.84
2022-12-11T20:41:26.106Z,97571.31
2022-12-11T20:43:54.738Z,97580.38
2022-12-11T20:46:26.088Z,97570.72
2022-12-11T20:48:56.168Z,97568.84
2022-12-11T20:51:26.498Z,97571.94
2022-12-11T20:53:59.522Z,97579.13
2022-12-11T20:56:32.019Z,97574.97
2022-12-11T20:59:01.428Z,97574.81
2022-12-11T21:01:32.778Z,97578.31
2022-12-11T21:04:00.936Z,97577.41
2022-12-11T21:06:33.811Z,97572.81
2022-12-11T21:09:04.891Z,97572.34
2022-12-11T21:11:32.315Z,97568.63
2022-12-11T21:13:59.664Z,97579.34
2022-12-11T21:16:27.229Z,97570.06
2022-12-11T21:18:56.323Z,97565.94
2022-12-11T21:21:23.864Z,97571.75
2022-12-11T21:23:51.602Z,97573.38
2022-12-11T21:26:18.791Z,97581.06
2022-12-11T21:28:46.151Z,97574.66
2022-12-11T21:31:15.837Z,97576.28
2022-12-11T21:33:43.174Z,97575.03
2022-12-11T21:36:13.503Z,97578.75
2022-12-11T21:38:42.245Z,97577.69
2022-12-11T21:41:13.675Z,97583.06
2022-12-11T21:44:12.948Z,97577.94
2022-12-11T21:46:28.911Z,97594.06
2022-12-11T21:48:56.160Z,97590.94
2022-12-11T21:51:36.160Z,97587.22
2022-12-11T21:54:07.178Z,97585.94
2022-12-11T21:56:34.099Z,97587.00
2022-12-11T21:59:01.801Z,97592.78
2022-12-11T22:01:33.604Z,97592.56
2022-12-11T22:04:01.251Z,97588.25
2022-12-11T22:06:28.045Z,97593.84
2022-12-11T22:08:54.881Z,97587.66
2022-12-11T22:11:28.424Z,97595.47
2022-12-11T22:13:55.891Z,97592.44
2022-12-11T22:16:23.015Z,97594.88
2022-12-11T22:18:49.948Z,97592.66
2022-12-11T22:21:17.393Z,97596.59
2022-12-11T22:23:44.712Z,97600.69
2022-12-11T22:26:17.284Z,97599.72
2022-12-11T22:28:44.303Z,97601.22
2022-12-11T22:31:15.221Z,97613.53
2022-12-11T22:33:42.560Z,97613.97
2022-12-11T22:36:10.944Z,97616.00
2022-12-11T22:38:37.996Z,97612.72
2022-12-11T22:41:15.256Z,97616.22
2022-12-11T22:43:44.391Z,97614.38
2022-12-11T22:46:15.637Z,97623.66
2022-12-11T22:48:42.371Z,97629.00
2022-12-11T22:51:09.980Z,97627.56
2022-12-11T22:53:36.897Z,97621.38
2022-12-11T22:56:08.038Z,97622.66
2022-12-11T22:58:35.575Z,97625.91
2022-12-11T23:01:03.214Z,97626.75
2022-12-11T23:03:30.000Z,97625.09
2022-12-11T23:05:59.710Z,97627.19
2022-12-11T23:08:28.814Z,97626.97
2022-12-11T23:10:55.638Z,97629.41
2022-12-11T23:13:22.501Z,97630.22
2022-12-11T23:15:49.321Z,97630.22
2022-12-11T23:18:16.122Z,97628.38
2022-12-11T23:20:43.242Z,97631.28
2022-12-11T23:23:10.061Z,97634.38
2022-12-11T23:25:36.863Z,97636.63
2022-12-11T23:28:03.691Z,97625.69
2022-12-11T23:30:30.573Z,97633.94
2022-12-11T23:32:57.409Z,97636.41
2022-12-11T23:35:24.440Z,97633.94
2022-12-11T23:37:51.287Z,97636.63
2022-12-11T23:40:18.120Z,97638.47
2022-12-11T23:42:44.940Z,97631.94
2022-12-11T23:45:12.023Z,97632.91
2022-12-11T23:47:39.036Z,97633.34
2022-12-11T23:50:06.257Z,97638.69
2022-12-11T23:52:33.055Z,97641.38
2022-12-11T23:54:59.844Z,97644.50
2022-12-11T23:57:26.691Z,97644.94
2022-12-11T23:59:53.429Z,97644.72
